Time;durP1;ratioP1;P1;durP2;ratioP2;P2;SDS_P1;SDS_P2;PMS_P1;PMS_P2;Temp;Humidity;BMP_temperature;BMP_pressure;BME280_temperature;BME280_humidity;BME280_pressure;Samples;Min_cycle;Max_cycle;Signal;HPM_P1;HPM_P2
2023/06/07 00:00:30;;;;;;;1.08;0.82;;;20.30;91.80;;;;;;4444298;32;20045;-66
2023/06/07 00:02:56;;;;;;;0.40;0.40;;;20.40;91.70;;;;;;4441525;32;20092;-67
2023/06/07 00:05:22;;;;;;;0.40;0.40;;;20.30;91.40;;;;;;4444968;32;20124;-66
2023/06/07 00:07:48;;;;;;;0.30;0.30;;;20.40;91.40;;;;;;4440065;32;20089;-66
2023/06/07 00:10:13;;;;;;;1.75;0.65;;;20.30;91.20;;;;;;4436138;32;20085;-66
2023/06/07 00:12:40;;;;;;;0.93;0.85;;;20.30;90.90;;;;;;4443507;32;20053;-66
2023/06/07 00:15:07;;;;;;;0.40;0.40;;;20.20;91.10;;;;;;4442470;32;20069;-66
2023/06/07 00:17:32;;;;;;;0.30;0.30;;;20.20;91.20;;;;;;4442716;32;20433;-66
2023/06/07 00:19:58;;;;;;;0.32;0.32;;;20.20;91.10;;;;;;4442741;32;20132;-66
2023/06/07 00:22:24;;;;;;;0.50;0.50;;;20.20;90.90;;;;;;4443933;32;20073;-66
2023/06/07 00:24:51;;;;;;;0.70;0.65;;;20.20;91.00;;;;;;4444213;32;20170;-65
2023/06/07 00:27:17;;;;;;;1.83;0.70;;;20.20;90.90;;;;;;4447711;32;20088;-65
2023/06/07 00:29:42;;;;;;;0.55;0.55;;;20.20;90.80;;;;;;4447642;32;20120;-65
2023/06/07 00:32:08;;;;;;;0.43;0.25;;;20.20;90.50;;;;;;4446337;32;20060;-65
2023/06/07 00:34:33;;;;;;;0.30;0.30;;;20.20;90.70;;;;;;4443728;32;20081;-65
2023/06/07 00:36:59;;;;;;;1.00;0.50;;;20.20;90.20;;;;;;4445715;32;20050;-65
2023/06/07 00:39:24;;;;;;;0.47;0.47;;;20.20;90.10;;;;;;4445700;32;20089;-66
2023/06/07 00:41:51;;;;;;;3.30;0.70;;;20.20;89.60;;;;;;4445316;32;20100;-65
2023/06/07 00:44:17;;;;;;;0.30;0.30;;;20.10;90.30;;;;;;4445275;32;20132;-65
2023/06/07 00:46:42;;;;;;;0.20;0.20;;;20.10;90.60;;;;;;4446211;32;20116;-65
2023/06/07 00:49:10;;;;;;;0.30;0.30;;;19.90;90.40;;;;;;4446891;32;20108;-65
2023/06/07 00:51:35;;;;;;;1.00;0.80;;;19.90;90.80;;;;;;4440949;32;20082;-65
2023/06/07 00:54:05;;;;;;;0.35;0.35;;;19.80;90.60;;;;;;4440422;32;20124;-66
2023/06/07 00:56:31;;;;;;;0.37;0.37;;;19.90;90.20;;;;;;4445871;32;20058;-65
2023/06/07 00:58:57;;;;;;;4.28;1.25;;;19.80;90.90;;;;;;4442963;32;20477;-65
2023/06/07 01:01:22;;;;;;;1.00;0.75;;;19.70;90.40;;;;;;4444433;32;20147;-65
2023/06/07 01:03:48;;;;;;;0.40;0.40;;;19.60;90.30;;;;;;4438594;32;20068;-65
2023/06/07 01:06:13;;;;;;;0.40;0.40;;;19.60;90.60;;;;;;4440662;32;20089;-66
2023/06/07 01:08:40;;;;;;;4.37;0.65;;;19.60;90.10;;;;;;4440877;32;20109;-66
2023/06/07 01:11:08;;;;;;;0.40;0.40;;;19.70;90.20;;;;;;4437548;32;20069;-66
2023/06/07 01:13:34;;;;;;;0.70;0.70;;;19.70;89.10;;;;;;4440092;32;20093;-66
2023/06/07 01:16:00;;;;;;;0.47;0.40;;;19.70;89.10;;;;;;4441890;32;20090;-66
2023/06/07 01:18:26;;;;;;;1.98;0.88;;;19.70;89.10;;;;;;4444307;32;20069;-66
2023/06/07 01:20:56;;;;;;;0.55;0.55;;;19.70;89.90;;;;;;4436651;32;20548;-66
2023/06/07 01:23:31;;;;;;;0.20;0.20;;;19.70;87.80;;;;;;4439069;32;20064;-66
2023/06/07 01:25:58;;;;;;;0.30;0.30;;;19.80;87.50;;;;;;4441651;32;20167;-66
2023/06/07 01:28:25;;;;;;;0.57;0.57;;;19.70;88.30;;;;;;4445811;32;20087;-66
2023/06/07 01:30:52;;;;;;;0.35;0.35;;;19.70;88.50;;;;;;4444578;32;20097;-66
2023/06/07 01:33:20;;;;;;;3.67;0.85;;;19.70;87.50;;;;;;4447823;32;20127;-66
2023/06/07 01:35:47;;;;;;;0.45;0.40;;;19.70;88.10;;;;;;4445811;32;20069;-66
2023/06/07 01:38:14;;;;;;;0.40;0.40;;;19.60;87.60;;;;;;4444535;32;20070;-66
2023/06/07 01:40:41;;;;;;;0.30;0.30;;;19.60;88.10;;;;;;4442855;32;20191;-66
2023/06/07 01:43:07;;;;;;;0.40;0.40;;;19.60;87.30;;;;;;4443946;32;20109;-66
2023/06/07 01:45:33;;;;;;;0.30;0.30;;;19.70;87.00;;;;;;4445069;32;20101;-66
2023/06/07 01:47:59;;;;;;;1.25;0.57;;;19.70;87.00;;;;;;4446554;32;20078;-66
2023/06/07 01:50:24;;;;;;;0.60;0.60;;;19.70;87.50;;;;;;4446067;32;20064;-66
2023/06/07 01:52:50;;;;;;;0.52;0.50;;;19.70;88.40;;;;;;4445361;32;20088;-65
2023/06/07 01:55:17;;;;;;;0.70;0.60;;;19.60;88.60;;;;;;4445822;32;20058;-66
2023/06/07 01:57:52;;;;;;;1.10;1.00;;;19.50;89.40;;;;;;4445704;32;20492;-66
2023/06/07 02:00:25;;;;;;;0.45;0.40;;;19.40;89.40;;;;;;4443323;32;20080;-66
2023/06/07 02:02:57;;;;;;;0.30;0.30;;;19.40;89.60;;;;;;4445119;32;20110;-66
2023/06/07 02:05:31;;;;;;;0.37;0.37;;;19.50;87.80;;;;;;4444264;32;20057;-66
2023/06/07 02:08:00;;;;;;;0.30;0.30;;;19.50;87.70;;;;;;4440487;32;20094;-66
2023/06/07 02:10:28;;;;;;;1.20;1.10;;;19.60;87.30;;;;;;4444650;32;20101;-66
2023/06/07 02:12:54;;;;;;;0.43;0.43;;;19.60;88.20;;;;;;4447067;32;20131;-66
2023/06/07 02:15:21;;;;;;;1.60;0.77;;;19.60;87.30;;;;;;4443121;32;20147;-66
2023/06/07 02:17:49;;;;;;;0.40;0.40;;;19.50;86.90;;;;;;4442281;32;20098;-66
2023/06/07 02:20:15;;;;;;;0.28;0.28;;;19.50;86.10;;;;;;4444848;32;20080;-66
2023/06/07 02:22:40;;;;;;;0.30;0.30;;;19.50;87.00;;;;;;4445076;32;20434;-66
2023/06/07 02:25:08;;;;;;;0.47;0.45;;;19.50;86.40;;;;;;4443634;32;20053;-66
2023/06/07 02:27:34;;;;;;;0.30;0.30;;;19.50;86.00;;;;;;4446132;32;20103;-66
2023/06/07 02:30:00;;;;;;;0.32;0.32;;;19.60;85.50;;;;;;4446863;32;20093;-66
2023/06/07 02:32:26;;;;;;;0.68;0.68;;;19.60;85.90;;;;;;4446749;32;20077;-66
2023/06/07 02:34:51;;;;;;;0.30;0.30;;;19.50;86.50;;;;;;4445592;32;20219;-65
2023/06/07 02:37:17;;;;;;;0.50;0.50;;;19.50;85.60;;;;;;4445385;32;20126;-66
2023/06/07 02:39:43;;;;;;;0.37;0.37;;;19.50;85.70;;;;;;4445588;32;20092;-66
2023/06/07 02:42:08;;;;;;;5.15;0.45;;;19.50;85.60;;;;;;4441103;32;20088;-66
2023/06/07 02:44:34;;;;;;;0.88;0.45;;;19.50;85.30;;;;;;4447066;32;20099;-66
2023/06/07 02:46:59;;;;;;;0.20;0.20;;;19.50;85.20;;;;;;4441482;32;20078;-66
2023/06/07 02:49:25;;;;;;;0.20;0.20;;;19.50;85.10;;;;;;4444233;32;20096;-66
2023/06/07 02:51:50;;;;;;;0.35;0.35;;;19.50;83.70;;;;;;4444578;32;20088;-66
2023/06/07 02:54:19;;;;;;;0.50;0.50;;;19.50;83.90;;;;;;4444585;32;20456;-66
2023/06/07 02:56:45;;;;;;;0.40;0.40;;;19.60;84.60;;;;;;4444227;32;20138;-66
2023/06/07 02:59:10;;;;;;;0.57;0.57;;;19.60;84.20;;;;;;4443724;32;20093;-66
2023/06/07 03:01:37;;;;;;;0.30;0.30;;;19.60;84.10;;;;;;4441932;32;20119;-66
2023/06/07 03:04:03;;;;;;;0.90;0.60;;;19.50;84.10;;;;;;4445737;32;20105;-66
2023/06/07 03:06:29;;;;;;;0.37;0.37;;;19.50;84.70;;;;;;4442934;32;20074;-66
2023/06/07 03:08:56;;;;;;;2.17;0.88;;;19.50;83.50;;;;;;4444642;32;20061;-66
2023/06/07 03:11:22;;;;;;;0.20;0.20;;;19.50;84.00;;;;;;4445982;32;20127;-65
2023/06/07 03:13:48;;;;;;;0.50;0.50;;;19.50;83.70;;;;;;4445141;32;20089;-66
2023/06/07 03:16:13;;;;;;;0.20;0.20;;;19.50;83.10;;;;;;4446302;32;20073;-66
2023/06/07 03:18:39;;;;;;;0.35;0.35;;;19.50;82.90;;;;;;4446995;32;20116;-66
2023/06/07 03:21:04;;;;;;;0.40;0.40;;;19.50;82.80;;;;;;4445449;32;20342;-66
2023/06/07 03:23:30;;;;;;;0.30;0.30;;;19.50;82.50;;;;;;4447793;32;20105;-66
2023/06/07 03:25:57;;;;;;;0.32;0.32;;;19.50;82.40;;;;;;4445255;32;20593;-66
2023/06/07 03:28:22;;;;;;;0.50;0.50;;;19.50;83.70;;;;;;4444699;32;20101;-66
2023/06/07 03:30:48;;;;;;;0.40;0.40;;;19.50;83.00;;;;;;4446906;32;20097;-66
2023/06/07 03:33:13;;;;;;;0.43;0.43;;;19.50;83.60;;;;;;4444759;32;20061;-66
2023/06/07 03:35:41;;;;;;;1.67;1.15;;;19.50;83.70;;;;;;4444551;32;20093;-66
2023/06/07 03:38:07;;;;;;;0.20;0.20;;;19.50;82.70;;;;;;4448338;32;20082;-66
2023/06/07 03:40:32;;;;;;;0.30;0.30;;;19.50;84.00;;;;;;4443421;32;20077;-66
2023/06/07 03:42:59;;;;;;;0.20;0.20;;;19.40;83.70;;;;;;4443090;32;20078;-66
2023/06/07 03:45:24;;;;;;;1.12;0.50;;;19.40;84.60;;;;;;4443413;32;20078;-66
2023/06/07 03:47:50;;;;;;;0.35;0.35;;;19.40;84.50;;;;;;4442932;32;20085;-66
2023/06/07 03:50:15;;;;;;;0.30;0.30;;;19.50;83.70;;;;;;4444149;32;20073;-66
2023/06/07 03:52:41;;;;;;;0.40;0.40;;;19.50;83.80;;;;;;4449216;32;20069;-65
2023/06/07 03:55:07;;;;;;;0.40;0.40;;;19.50;84.50;;;;;;4445506;32;20093;-65
2023/06/07 03:57:32;;;;;;;0.52;0.52;;;19.50;85.40;;;;;;4446177;32;20108;-65
2023/06/07 04:00:00;;;;;;;0.90;0.88;;;19.40;85.80;;;;;;4444098;32;20092;-65
2023/06/07 04:02:27;;;;;;;0.35;0.35;;;19.40;85.70;;;;;;4445959;32;20077;-65
2023/06/07 04:04:54;;;;;;;0.55;0.50;;;19.40;86.50;;;;;;4445631;32;20101;-65
2023/06/07 04:07:19;;;;;;;5.53;1.42;;;19.40;86.90;;;;;;4446138;32;20157;-65
2023/06/07 04:09:45;;;;;;;0.30;0.30;;;19.40;87.90;;;;;;4442704;32;20092;-65
2023/06/07 04:12:10;;;;;;;0.40;0.40;;;19.30;86.90;;;;;;4446238;32;20085;-65
2023/06/07 04:14:36;;;;;;;0.25;0.25;;;19.30;87.90;;;;;;4440862;32;20097;-65
2023/06/07 04:17:02;;;;;;;0.62;0.43;;;19.40;86.30;;;;;;4444209;32;20274;-65
2023/06/07 04:19:27;;;;;;;1.67;1.05;;;19.50;87.00;;;;;;4443025;32;20100;-65
2023/06/07 04:21:53;;;;;;;0.50;0.50;;;19.50;86.30;;;;;;4434406;32;20081;-65
2023/06/07 04:24:19;;;;;;;0.40;0.40;;;19.50;86.00;;;;;;4440088;32;20065;-65
2023/06/07 04:26:44;;;;;;;0.47;0.47;;;19.60;86.10;;;;;;4441948;32;20077;-65
2023/06/07 04:29:10;;;;;;;0.57;0.40;;;19.60;85.90;;;;;;4440966;32;20454;-65
2023/06/07 04:31:39;;;;;;;0.40;0.40;;;19.70;85.30;;;;;;4440208;32;20128;-65
2023/06/07 04:34:04;;;;;;;0.30;0.30;;;19.60;85.50;;;;;;4440419;32;20310;-65
2023/06/07 04:36:30;;;;;;;0.30;0.30;;;19.60;86.40;;;;;;4441443;32;20109;-65
2023/06/07 04:38:56;;;;;;;0.50;0.50;;;19.60;85.30;;;;;;4443433;32;20097;-66
2023/06/07 04:41:30;;;;;;;0.43;0.43;;;19.70;86.70;;;;;;4440320;32;20073;-67
2023/06/07 04:43:56;;;;;;;0.30;0.30;;;19.80;88.20;;;;;;4441102;32;20208;-65
2023/06/07 04:46:22;;;;;;;0.20;0.20;;;19.70;86.20;;;;;;4440236;32;20132;-66
2023/06/07 04:48:47;;;;;;;0.50;0.47;;;19.70;85.70;;;;;;4438932;32;20061;-65
2023/06/07 04:51:13;;;;;;;0.65;0.40;;;19.80;86.70;;;;;;4437248;32;20114;-65
2023/06/07 04:53:41;;;;;;;1.92;0.37;;;19.80;85.40;;;;;;4440148;32;20124;-65
2023/06/07 04:56:06;;;;;;;0.52;0.52;;;19.80;85.00;;;;;;4446490;32;20076;-65
2023/06/07 04:58:32;;;;;;;0.20;0.20;;;19.90;85.60;;;;;;4441890;32;20777;-65
2023/06/07 05:00:57;;;;;;;0.32;0.30;;;20.00;85.50;;;;;;4440104;32;20082;-65
2023/06/07 05:03:24;;;;;;;3.40;0.70;;;20.00;85.30;;;;;;4437569;32;20521;-65
2023/06/07 05:05:51;;;;;;;0.30;0.30;;;20.10;85.40;;;;;;4436181;32;20151;-65
2023/06/07 05:08:17;;;;;;;0.22;0.22;;;20.10;85.00;;;;;;4442337;32;20092;-65
2023/06/07 05:10:42;;;;;;;0.52;0.52;;;20.10;84.40;;;;;;4439922;32;20109;-65
2023/06/07 05:13:08;;;;;;;1.98;1.20;;;20.10;84.60;;;;;;4441160;32;20073;-65
2023/06/07 05:15:33;;;;;;;0.30;0.30;;;20.10;84.40;;;;;;4439306;32;20088;-65
2023/06/07 05:18:00;;;;;;;0.50;0.50;;;20.10;85.50;;;;;;4426905;32;20587;-65
2023/06/07 05:20:27;;;;;;;0.90;0.68;;;20.10;85.80;;;;;;4435779;32;20090;-65
2023/06/07 05:22:53;;;;;;;0.30;0.30;;;20.10;84.70;;;;;;4437418;32;20073;-65
2023/06/07 05:25:20;;;;;;;0.20;0.20;;;20.20;86.60;;;;;;4435540;32;20078;-65
2023/06/07 05:27:49;;;;;;;0.43;0.43;;;20.20;84.60;;;;;;4426944;32;20080;-65
2023/06/07 05:30:17;;;;;;;0.57;0.57;;;20.30;84.00;;;;;;4426736;32;20077;-65
2023/06/07 05:32:43;;;;;;;0.80;0.80;;;20.40;84.00;;;;;;4424840;32;20081;-66
2023/06/07 05:35:10;;;;;;;0.20;0.20;;;20.50;83.30;;;;;;4437300;32;20081;-66
2023/06/07 05:37:36;;;;;;;4.15;0.60;;;20.50;84.00;;;;;;4436798;32;20875;-65
2023/06/07 05:40:07;;;;;;;1.15;0.82;;;20.60;83.20;;;;;;4433779;32;20105;-66
2023/06/07 05:42:38;;;;;;;0.80;0.47;;;20.70;82.60;;;;;;4436807;32;20106;-66
2023/06/07 05:45:07;;;;;;;0.95;0.73;;;20.70;81.90;;;;;;4429186;32;20089;-67
2023/06/07 05:47:33;;;;;;;0.70;0.57;;;20.80;80.00;;;;;;4431513;32;20151;-67
2023/06/07 05:50:00;;;;;;;0.73;0.60;;;20.90;80.60;;;;;;4431076;32;20089;-66
2023/06/07 05:52:25;;;;;;;11.80;3.15;;;20.90;79.70;;;;;;4435611;32;20065;-66
2023/06/07 05:54:54;;;;;;;3.75;1.30;;;21.00;79.60;;;;;;4424249;32;20535;-68
2023/06/07 05:57:20;;;;;;;0.45;0.45;;;21.00;80.80;;;;;;4420037;32;20199;-67
2023/06/07 05:59:45;;;;;;;0.40;0.40;;;21.10;79.50;;;;;;4422775;32;20081;-66
2023/06/07 06:02:11;;;;;;;0.90;0.88;;;21.10;77.70;;;;;;4425055;32;20101;-66
2023/06/07 06:04:36;;;;;;;1.00;1.00;;;21.20;78.80;;;;;;4413302;32;20467;-66
2023/06/07 06:07:02;;;;;;;0.37;0.37;;;21.30;79.10;;;;;;4403155;32;20136;-67
2023/06/07 06:09:28;;;;;;;0.85;0.57;;;21.20;78.10;;;;;;4398436;32;20105;-66
2023/06/07 06:11:55;;;;;;;0.35;0.35;;;21.30;77.60;;;;;;4408344;32;20089;-66
2023/06/07 06:14:21;;;;;;;0.90;0.40;;;21.30;77.00;;;;;;4397452;32;20113;-67
2023/06/07 06:16:47;;;;;;;0.60;0.60;;;21.30;76.70;;;;;;4399663;32;20155;-67
2023/06/07 06:19:12;;;;;;;0.68;0.62;;;21.20;79.00;;;;;;4407152;32;20615;-67
2023/06/07 06:21:38;;;;;;;0.35;0.30;;;21.20;79.60;;;;;;4405478;32;20089;-67
2023/06/07 06:24:04;;;;;;;0.77;0.55;;;21.20;79.20;;;;;;4402216;32;20812;-67
2023/06/07 06:26:29;;;;;;;0.93;0.40;;;21.20;79.70;;;;;;4402769;32;20081;-67
2023/06/07 06:28:55;;;;;;;5.68;0.57;;;21.10;78.20;;;;;;4390432;32;20080;-66
2023/06/07 06:31:20;;;;;;;0.98;0.30;;;21.10;78.40;;;;;;4388054;32;20126;-66
2023/06/07 06:33:46;;;;;;;0.85;0.77;;;21.20;78.40;;;;;;4393464;32;20785;-67
2023/06/07 06:36:11;;;;;;;0.85;0.60;;;21.10;78.90;;;;;;4393202;32;20398;-67
2023/06/07 06:38:37;;;;;;;0.50;0.50;;;21.10;78.60;;;;;;4402529;32;20085;-67
2023/06/07 06:41:02;;;;;;;0.35;0.35;;;21.20;79.40;;;;;;4399102;32;20159;-67
2023/06/07 06:43:28;;;;;;;0.43;0.43;;;21.20;78.40;;;;;;4398372;32;21815;-67
2023/06/07 06:45:53;;;;;;;0.57;0.43;;;21.20;79.00;;;;;;4394950;32;20151;-67
2023/06/07 06:48:19;;;;;;;0.40;0.40;;;21.30;77.90;;;;;;4400392;32;21676;-67
2023/06/07 06:50:46;;;;;;;0.37;0.32;;;21.30;77.80;;;;;;4402010;32;20090;-66
2023/06/07 06:53:12;;;;;;;0.57;0.57;;;21.40;78.10;;;;;;4398671;32;20090;-66
2023/06/07 06:55:38;;;;;;;0.20;0.20;;;21.50;78.10;;;;;;4406494;32;21026;-67
2023/06/07 06:58:03;;;;;;;0.37;0.37;;;21.50;77.10;;;;;;4399574;32;20465;-66
2023/06/07 07:00:31;;;;;;;0.40;0.37;;;21.60;77.20;;;;;;4394094;32;20394;-65
2023/06/07 07:02:57;;;;;;;0.20;0.20;;;21.60;76.90;;;;;;4386168;32;20739;-66
2023/06/07 07:05:23;;;;;;;0.65;0.65;;;21.70;78.40;;;;;;4398406;32;20905;-66
2023/06/07 07:07:48;;;;;;;8.77;1.67;;;21.80;77.20;;;;;;4388708;32;20254;-66
2023/06/07 07:10:14;;;;;;;2.22;1.10;;;21.80;76.90;;;;;;4361597;32;21442;-65
2023/06/07 07:12:39;;;;;;;0.22;0.22;;;21.80;76.80;;;;;;4375708;32;20085;-65
2023/06/07 07:15:05;;;;;;;0.20;0.20;;;21.90;77.30;;;;;;4397647;32;20765;-66
2023/06/07 07:17:31;;;;;;;0.32;0.32;;;22.00;77.00;;;;;;4405672;32;20156;-66
2023/06/07 07:19:57;;;;;;;2.72;0.40;;;22.00;76.40;;;;;;4401316;32;20081;-66
2023/06/07 07:22:22;;;;;;;0.50;0.50;;;22.00;77.00;;;;;;4400510;32;20327;-66
2023/06/07 07:24:47;;;;;;;0.90;0.45;;;22.10;76.50;;;;;;4398469;32;20486;-66
2023/06/07 07:27:13;;;;;;;1.02;0.80;;;22.20;76.10;;;;;;4401261;32;20096;-66
2023/06/07 07:29:39;;;;;;;0.37;0.37;;;22.40;76.40;;;;;;4384863;32;21478;-66
2023/06/07 07:32:05;;;;;;;0.40;0.40;;;22.40;75.70;;;;;;4391841;32;20109;-67
2023/06/07 07:34:31;;;;;;;0.60;0.40;;;22.50;75.10;;;;;;4406253;32;20788;-66
2023/06/07 07:37:02;;;;;;;0.30;0.30;;;22.50;75.00;;;;;;4420376;32;20535;-66
2023/06/07 07:39:27;;;;;;;0.43;0.43;;;22.60;75.70;;;;;;4417793;32;20741;-66
2023/06/07 07:41:53;;;;;;;0.52;0.40;;;22.70;75.60;;;;;;4421103;32;20069;-66
2023/06/07 07:44:19;;;;;;;1.30;0.68;;;22.70;73.80;;;;;;4422620;32;20142;-66
2023/06/07 07:46:44;;;;;;;0.80;0.80;;;22.80;75.70;;;;;;4419934;32;20852;-66
2023/06/07 07:49:10;;;;;;;0.77;0.70;;;22.80;76.20;;;;;;4400745;32;20101;-67
2023/06/07 07:51:36;;;;;;;0.82;0.45;;;22.80;75.10;;;;;;4402371;32;20245;-66
2023/06/07 07:54:01;;;;;;;0.35;0.35;;;22.80;74.80;;;;;;4383110;32;20152;-68
2023/06/07 07:56:27;;;;;;;0.73;0.45;;;22.70;74.50;;;;;;4395415;32;20553;-66
2023/06/07 07:58:53;;;;;;;1.30;0.93;;;22.80;75.60;;;;;;4399057;32;20472;-67
2023/06/07 08:01:19;;;;;;;0.40;0.40;;;22.90;74.50;;;;;;4397974;32;20101;-65
2023/06/07 08:03:46;;;;;;;0.60;0.60;;;23.00;74.70;;;;;;4401752;32;20085;-67
2023/06/07 08:06:12;;;;;;;0.40;0.40;;;23.10;74.30;;;;;;4399990;32;20091;-67
2023/06/07 08:08:37;;;;;;;1.20;0.40;;;23.20;74.80;;;;;;4401105;32;20167;-67
2023/06/07 08:11:03;;;;;;;0.30;0.30;;;23.40;73.80;;;;;;4402409;32;21605;-67
2023/06/07 08:13:28;;;;;;;3.92;1.05;;;23.50;73.30;;;;;;4402472;32;20077;-67
2023/06/07 08:15:54;;;;;;;0.70;0.52;;;23.60;73.80;;;;;;4406845;32;20587;-66
2023/06/07 08:18:20;;;;;;;0.40;0.40;;;23.70;74.00;;;;;;4397660;32;20307;-67
2023/06/07 08:20:45;;;;;;;2.20;0.70;;;23.70;72.90;;;;;;4396670;32;20604;-67
2023/06/07 08:23:11;;;;;;;0.20;0.20;;;23.70;73.10;;;;;;4398028;32;20912;-66
2023/06/07 08:25:37;;;;;;;0.68;0.68;;;23.70;72.10;;;;;;4401601;32;20098;-66
2023/06/07 08:28:02;;;;;;;0.35;0.35;;;23.70;72.70;;;;;;4399654;32;20110;-66
2023/06/07 08:30:28;;;;;;;0.43;0.43;;;23.70;72.50;;;;;;4407172;32;20093;-66
2023/06/07 08:32:54;;;;;;;0.20;0.20;;;23.60;72.50;;;;;;4397532;32;20114;-65
2023/06/07 08:35:19;;;;;;;0.40;0.40;;;23.60;71.90;;;;;;4402040;32;20073;-66
2023/06/07 08:37:45;;;;;;;0.40;0.40;;;23.70;72.80;;;;;;4402553;32;21162;-66
2023/06/07 08:40:11;;;;;;;0.50;0.40;;;23.90;72.50;;;;;;4410351;32;20467;-67
2023/06/07 08:42:38;;;;;;;0.20;0.20;;;24.00;71.30;;;;;;4416557;32;20097;-68
2023/06/07 08:45:04;;;;;;;0.68;0.60;;;24.10;71.60;;;;;;4410000;32;20061;-67
2023/06/07 08:47:33;;;;;;;0.30;0.30;;;24.30;71.70;;;;;;4408103;32;20482;-67
2023/06/07 08:50:00;;;;;;;0.45;0.45;;;24.50;70.50;;;;;;4414247;32;20405;-66
2023/06/07 08:52:26;;;;;;;0.43;0.30;;;24.60;70.80;;;;;;4400503;32;20557;-69
2023/06/07 08:54:55;;;;;;;11.35;1.30;;;24.60;71.20;;;;;;4412341;32;20085;-67
2023/06/07 08:57:20;;;;;;;0.40;0.40;;;24.90;71.50;;;;;;4402030;32;20089;-67
2023/06/07 08:59:46;;;;;;;0.95;0.65;;;25.10;70.50;;;;;;4402285;32;20113;-66
2023/06/07 09:02:13;;;;;;;2.12;0.93;;;25.10;68.70;;;;;;4404545;32;20074;-66
2023/06/07 09:04:40;;;;;;;0.55;0.55;;;25.10;68.90;;;;;;4418162;32;20088;-66
2023/06/07 09:07:07;;;;;;;0.30;0.30;;;25.30;70.00;;;;;;4430913;32;20263;-67
2023/06/07 09:09:34;;;;;;;0.20;0.20;;;25.60;69.30;;;;;;4419614;32;20860;-67
2023/06/07 09:12:00;;;;;;;0.10;0.10;;;25.70;68.50;;;;;;4412970;32;20557;-67
2023/06/07 09:14:28;;;;;;;0.25;0.25;;;25.80;69.40;;;;;;4428140;32;20102;-66
2023/06/07 09:16:56;;;;;;;0.40;0.40;;;25.90;68.50;;;;;;4423811;32;20221;-65
2023/06/07 09:19:32;;;;;;;0.28;0.28;;;25.80;68.50;;;;;;4425323;32;20088;-66
2023/06/07 09:21:58;;;;;;;0.47;0.47;;;25.70;67.90;;;;;;4408535;32;20478;-66
2023/06/07 09:24:28;;;;;;;0.37;0.37;;;25.80;68.90;;;;;;4421807;32;20100;-68
2023/06/07 09:26:55;;;;;;;0.20;0.20;;;26.00;68.10;;;;;;4406531;32;20588;-65
2023/06/07 09:29:21;;;;;;;0.40;0.40;;;26.10;67.50;;;;;;4408408;32;20130;-66
2023/06/07 09:31:47;;;;;;;0.57;0.57;;;26.10;68.30;;;;;;4402608;32;20137;-66
2023/06/07 09:34:28;;;;;;;7.12;1.33;;;25.90;67.60;;;;;;4400632;32;20164;-66
2023/06/07 09:36:56;;;;;;;0.28;0.28;;;25.90;67.40;;;;;;4405198;32;20176;-67
2023/06/07 09:39:25;;;;;;;0.40;0.40;;;26.10;66.60;;;;;;4411860;32;20084;-66
2023/06/07 09:41:54;;;;;;;0.50;0.50;;;26.10;66.60;;;;;;4400678;32;20930;-67
2023/06/07 09:44:22;;;;;;;0.30;0.30;;;26.10;66.00;;;;;;4411368;32;20101;-68
2023/06/07 09:46:47;;;;;;;0.57;0.55;;;26.20;67.20;;;;;;4411983;32;20085;-67
2023/06/07 09:49:13;;;;;;;0.40;0.40;;;26.70;66.20;;;;;;4403525;32;20768;-67
2023/06/07 09:51:40;;;;;;;1.00;0.85;;;27.00;67.30;;;;;;4397089;32;21607;-68
2023/06/07 09:54:07;;;;;;;0.22;0.22;;;27.10;64.90;;;;;;4402931;32;20293;-67
2023/06/07 09:56:38;;;;;;;5.25;0.95;;;27.10;64.50;;;;;;4402510;32;20208;-66
2023/06/07 09:59:18;;;;;;;0.37;0.25;;;27.30;64.50;;;;;;4389350;32;20613;-66
2023/06/07 10:01:45;;;;;;;0.30;0.30;;;27.60;63.60;;;;;;4389155;32;20100;-66
2023/06/07 10:04:12;;;;;;;0.32;0.32;;;27.60;63.60;;;;;;4394987;32;20907;-66
2023/06/07 10:06:41;;;;;;;0.30;0.30;;;27.70;64.00;;;;;;4406644;32;20278;-66
2023/06/07 10:09:08;;;;;;;0.30;0.30;;;27.80;63.20;;;;;;4401857;32;20101;-66
2023/06/07 10:11:37;;;;;;;0.47;0.40;;;28.10;63.30;;;;;;4403951;32;20094;-66
2023/06/07 10:14:09;;;;;;;0.57;0.57;;;28.20;62.20;;;;;;4401947;32;20073;-66
2023/06/07 10:16:36;;;;;;;0.50;0.50;;;28.30;61.60;;;;;;4405419;32;20126;-66
2023/06/07 10:19:24;;;;;;;0.10;0.10;;;28.50;61.60;;;;;;4406362;32;20069;-66
2023/06/07 10:21:53;;;;;;;0.40;0.40;;;28.30;60.80;;;;;;4396015;32;20132;-66
2023/06/07 10:24:24;;;;;;;1.10;0.45;;;28.30;62.00;;;;;;4409344;32;20089;-69
2023/06/07 10:27:10;;;;;;;2.33;0.57;;;28.30;61.80;;;;;;4407444;32;20809;-66
2023/06/07 10:29:41;;;;;;;0.40;0.40;;;28.40;61.40;;;;;;4410437;32;20118;-67
2023/06/07 10:32:10;;;;;;;0.73;0.50;;;28.20;61.30;;;;;;4415404;32;20092;-68
2023/06/07 10:34:37;;;;;;;1.65;0.70;;;28.30;62.40;;;;;;4414533;32;20777;-67
2023/06/07 10:37:07;;;;;;;0.25;0.25;;;28.40;62.90;;;;;;4412629;32;20089;-66
2023/06/07 10:39:34;;;;;;;0.40;0.40;;;28.50;63.10;;;;;;4411958;32;20093;-66
2023/06/07 10:42:00;;;;;;;12.70;1.23;;;28.60;62.40;;;;;;4416424;32;20082;-68
2023/06/07 10:44:25;;;;;;;0.30;0.30;;;28.50;62.90;;;;;;4416650;32;20105;-66
2023/06/07 10:47:31;;;;;;;0.55;0.55;;;28.50;63.10;;;;;;4413461;32;20113;-66
2023/06/07 10:49:57;;;;;;;19.37;1.92;;;28.50;62.10;;;;;;4390060;32;20093;-66
2023/06/07 10:52:26;;;;;;;0.30;0.30;;;28.50;63.30;;;;;;4410666;32;20093;-67
2023/06/07 10:54:51;;;;;;;0.25;0.25;;;28.90;63.00;;;;;;4400008;32;20101;-67
2023/06/07 10:57:35;;;;;;;3.78;0.93;;;29.40;61.00;;;;;;4406703;32;20085;-66
2023/06/07 11:00:29;;;;;;;0.30;0.30;;;29.60;61.50;;;;;;4379516;32;20147;-66
2023/06/07 11:03:16;;;;;;;0.57;0.50;;;29.90;59.40;;;;;;4390151;32;20097;-66
2023/06/07 11:06:01;;;;;;;0.30;0.30;;;30.10;58.60;;;;;;4414214;32;20108;-67
2023/06/07 11:08:28;;;;;;;0.15;0.15;;;30.30;58.00;;;;;;4412264;32;20469;-67
2023/06/07 11:10:58;;;;;;;0.20;0.20;;;30.50;58.20;;;;;;4408724;32;20793;-67
2023/06/07 11:13:25;;;;;;;0.35;0.35;;;30.70;57.50;;;;;;4404042;32;20105;-68
2023/06/07 11:15:51;;;;;;;1.33;0.70;;;30.50;57.90;;;;;;4405062;32;20192;-67
2023/06/07 11:18:16;;;;;;;0.47;0.47;;;30.50;58.50;;;;;;4411600;32;20183;-68
2023/06/07 11:20:45;;;;;;;0.30;0.30;;;30.70;57.20;;;;;;4409149;32;20454;-68
2023/06/07 11:23:31;;;;;;;0.52;0.52;;;30.70;56.20;;;;;;4414579;32;20089;-68
2023/06/07 11:26:15;;;;;;;0.20;0.20;;;30.80;55.50;;;;;;4395716;32;20097;-67
2023/06/07 11:28:41;;;;;;;0.75;0.50;;;30.70;54.80;;;;;;4410432;32;20116;-68
2023/06/07 11:31:11;;;;;;;0.40;0.40;;;30.80;54.80;;;;;;4409243;32;20224;-67
2023/06/07 11:33:37;;;;;;;0.80;0.60;;;30.80;54.40;;;;;;4413200;32;20123;-67
2023/06/07 11:36:04;;;;;;;0.05;0.05;;;31.00;55.80;;;;;;4411560;32;20576;-68
2023/06/07 11:38:30;;;;;;;0.10;0.10;;;31.00;54.20;;;;;;4398124;32;20105;-68
2023/06/07 11:40:56;;;;;;;0.22;0.22;;;31.30;55.90;;;;;;4409714;32;20154;-68
2023/06/07 11:43:25;;;;;;;0.13;0.13;;;31.70;55.20;;;;;;4406261;32;20568;-66
2023/06/07 11:45:50;;;;;;;0.80;0.30;;;32.20;53.80;;;;;;4389853;32;90003;-66
2023/06/07 11:48:16;;;;;;;0.47;0.20;;;31.90;53.20;;;;;;4410049;32;20186;-66
2023/06/07 11:50:43;;;;;;;0.10;0.10;;;31.50;53.50;;;;;;4411423;32;20504;-66
2023/06/07 11:53:10;;;;;;;0.10;0.10;;;31.40;54.60;;;;;;4416029;32;20097;-66
2023/06/07 11:55:36;;;;;;;0.55;0.40;;;31.70;54.50;;;;;;4403989;32;20147;-67
2023/06/07 11:58:03;;;;;;;1.45;0.57;;;31.60;54.10;;;;;;4414206;32;20482;-67
2023/06/07 12:00:32;;;;;;;0.93;0.40;;;31.60;53.80;;;;;;4405661;32;20514;-67
2023/06/07 12:03:00;;;;;;;0.25;0.25;;;31.90;54.00;;;;;;4406750;32;20787;-67
2023/06/07 12:05:30;;;;;;;5.37;0.85;;;32.40;54.00;;;;;;4407164;32;20394;-67
2023/06/07 12:08:05;;;;;;;1.02;0.65;;;32.80;53.20;;;;;;4406462;32;20076;-68
2023/06/07 12:10:33;;;;;;;0.00;0.00;;;33.30;52.50;;;;;;4399949;32;20499;-67
2023/06/07 12:13:09;;;;;;;0.52;0.30;;;33.70;52.40;;;;;;4398312;32;20432;-67
2023/06/07 12:15:55;;;;;;;0.50;0.50;;;33.80;52.30;;;;;;4403813;32;20076;-67
2023/06/07 12:18:26;;;;;;;0.20;0.20;;;33.90;51.50;;;;;;4397267;32;20062;-68
2023/06/07 12:21:10;;;;;;;0.35;0.30;;;34.00;51.60;;;;;;4403661;32;20089;-68
2023/06/07 12:23:44;;;;;;;0.20;0.20;;;34.30;52.50;;;;;;4409170;32;20073;-67
2023/06/07 12:26:15;;;;;;;0.05;0.05;;;34.40;51.60;;;;;;4414541;32;20308;-67
2023/06/07 12:28:42;;;;;;;0.10;0.10;;;34.30;51.10;;;;;;4410788;32;20097;-68
2023/06/07 12:31:20;;;;;;;0.90;0.30;;;33.90;51.70;;;;;;4403444;32;20152;-68
2023/06/07 12:34:08;;;;;;;0.22;0.22;;;34.00;51.90;;;;;;4412519;32;20165;-68
2023/06/07 12:36:36;;;;;;;0.17;0.17;;;34.30;51.30;;;;;;4403893;32;20092;-68
2023/06/07 12:39:08;;;;;;;0.43;0.30;;;35.00;50.70;;;;;;4417025;32;20085;-68
2023/06/07 12:41:35;;;;;;;1.37;0.73;;;35.00;51.10;;;;;;4423169;32;20061;-68
2023/06/07 12:44:04;;;;;;;0.20;0.20;;;34.90;50.80;;;;;;4418267;32;20396;-68
2023/06/07 12:46:30;;;;;;;0.15;0.15;;;35.40;50.40;;;;;;4424002;32;20074;-67